Time;durP1;ratioP1;P1;durP2;ratioP2;P2;SDS_P1;SDS_P2;PMS_P1;PMS_P2;Temp;Humidity;BMP_temperature;BMP_pressure;BME280_temperature;BME280_humidity;BME280_pressure;Samples;Min_cycle;Max_cycle;Signal;HPM_P1;HPM_P2
2023/09/29 00:01:38;;;;;;;7.00;3.20;;;;;;;18.91;100.00;98529.41;5031117;28;20740;-58
2023/09/29 00:04:05;;;;;;;2.97;2.70;;;;;;;18.98;100.00;98535.66;5048637;28;20651;-58
2023/09/29 00:06:34;;;;;;;5.97;3.17;;;;;;;19.17;100.00;98566.97;5051070;28;20196;-58
2023/09/29 00:09:00;;;;;;;5.38;3.35;;;;;;;18.85;100.00;98519.53;5051103;28;20177;-58
2023/09/29 00:11:26;;;;;;;5.72;3.22;;;;;;;18.78;100.00;98529.00;5050921;28;20706;-57
2023/09/29 00:13:51;;;;;;;11.60;3.25;;;;;;;18.87;100.00;98528.06;5050769;28;20229;-57
2023/09/29 00:16:17;;;;;;;5.22;3.95;;;;;;;18.98;100.00;98551.41;5050849;28;20204;-57
2023/09/29 00:18:42;;;;;;;6.63;3.50;;;;;;;19.04;100.00;98546.38;5050882;28;20403;-58
2023/09/29 00:21:08;;;;;;;5.78;3.42;;;;;;;18.79;100.00;98510.50;5050799;28;20294;-58
2023/09/29 00:23:34;;;;;;;4.57;3.35;;;;;;;18.89;100.00;98542.66;5050699;28;20743;-58
2023/09/29 00:26:00;;;;;;;8.88;3.40;;;;;;;18.85;100.00;98519.53;5050655;28;20177;-58
2023/09/29 00:28:26;;;;;;;8.23;3.25;;;;;;;18.76;100.00;98516.03;5050714;28;20178;-58
2023/09/29 00:30:51;;;;;;;6.63;3.78;;;;;;;18.86;100.00;98523.78;5050624;28;20690;-58
2023/09/29 00:33:17;;;;;;;5.57;3.50;;;;;;;18.83;100.00;98516.25;5102991;28;20706;-58
2023/09/29 00:35:42;;;;;;;7.90;3.50;;;;;;;19.01;100.00;98543.25;5113653;28;20167;-58
2023/09/29 00:38:09;;;;;;;7.28;3.30;;;;;;;19.03;100.00;98538.66;5113517;28;20266;-58
2023/09/29 00:40:35;;;;;;;6.68;3.40;;;;;;;18.92;100.00;98515.31;5112159;28;20182;-58
2023/09/29 00:43:02;;;;;;;6.63;3.47;;;;;;;19.11;100.00;98554.47;5113437;28;20175;-58
2023/09/29 00:45:28;;;;;;;4.70;3.15;;;;;;;18.92;100.00;98546.78;5113519;28;20193;-58
2023/09/29 00:47:57;;;;;;;5.13;3.45;;;;;;;18.75;100.00;98526.66;5113491;28;20164;-58
2023/09/29 00:50:26;;;;;;;7.57;3.45;;;;;;;18.66;100.00;98515.28;5113342;28;20203;-58
2023/09/29 00:52:53;;;;;;;7.97;3.70;;;;;;;18.97;100.00;98560.25;5113360;28;20175;-58
2023/09/29 00:55:24;;;;;;;4.35;3.15;;;;;;;18.85;100.00;98533.47;5113228;28;20649;-58
2023/09/29 00:57:50;;;;;;;6.57;3.25;;;;;;;18.92;100.00;98552.84;5113267;28;20269;-58
2023/09/29 01:00:32;;;;;;;7.07;3.47;;;;;;;18.84;100.00;98536.25;5113150;28;20225;-58
2023/09/29 01:03:05;;;;;;;8.80;3.20;;;;;;;18.94;100.00;98552.72;5113196;28;20194;-58
2023/09/29 01:05:31;;;;;;;3.60;2.90;;;;;;;19.00;100.00;98554.72;5113110;28;20183;-58
2023/09/29 01:07:56;;;;;;;8.10;3.10;;;;;;;18.92;100.00;98545.00;5112965;28;20179;-58
2023/09/29 01:10:24;;;;;;;8.40;3.80;;;;;;;18.95;100.00;98546.47;5112836;28;20568;-58
2023/09/29 01:12:49;;;;;;;3.88;3.22;;;;;;;18.81;100.00;98531.28;5112738;28;20282;-58
2023/09/29 01:15:15;;;;;;;8.32;3.15;;;;;;;18.91;100.00;98545.97;5069592;28;20210;-58
2023/09/29 01:17:42;;;;;;;7.47;3.33;;;;;;;18.77;100.00;98516.84;5069710;28;20181;-58
2023/09/29 01:20:43;;;;;;;5.75;3.35;;;;;;;18.79;100.00;98514.91;5069645;28;20249;-58
2023/09/29 01:23:05;;;;;;;4.65;2.90;;;;;;;18.91;100.00;98537.28;5066601;28;20184;-58
2023/09/29 01:25:32;;;;;;;4.72;2.92;;;;;;;18.84;100.00;98539.66;5069510;28;20279;-58
2023/09/29 01:27:58;;;;;;;5.68;3.50;;;;;;;18.75;100.00;98522.25;5069560;28;20254;-58
2023/09/29 01:30:25;;;;;;;6.68;3.08;;;;;;;18.72;100.00;98525.16;5069329;28;20223;-58
2023/09/29 01:32:52;;;;;;;9.30;3.28;;;;;;;18.70;100.00;98542.00;5069506;28;20208;-58
2023/09/29 01:35:23;;;;;;;6.10;3.47;;;;;;;18.70;100.00;98547.25;5069306;28;20196;-56
2023/09/29 01:37:49;;;;;;;5.20;3.20;;;;;;;18.60;100.00;98539.50;5069122;28;20184;-56
2023/09/29 01:40:16;;;;;;;7.18;3.15;;;;;;;18.62;100.00;98545.41;5069094;28;20267;-56
2023/09/29 01:42:45;;;;;;;6.28;3.42;;;;;;;18.70;100.00;98552.50;5068995;28;20168;-56
2023/09/29 01:45:14;;;;;;;5.60;3.05;;;;;;;18.61;100.00;98548.19;5071460;28;20264;-58
2023/09/29 01:47:41;;;;;;;7.70;3.00;;;;;;;18.52;100.00;98539.44;5112279;28;20264;-57
2023/09/29 01:50:07;;;;;;;4.50;2.80;;;;;;;18.38;100.00;98524.25;5112034;28;20619;-58
2023/09/29 01:52:33;;;;;;;5.80;3.60;;;;;;;18.44;100.00;98541.16;5111641;28;20171;-58
2023/09/29 01:54:59;;;;;;;4.25;3.30;;;;;;;18.37;100.00;98540.13;5112343;28;20208;-57
2023/09/29 01:57:24;;;;;;;4.45;3.60;;;;;;;18.34;100.00;98529.94;5111999;28;20171;-57
2023/09/29 01:59:49;;;;;;;9.52;3.15;;;;;;;18.40;100.00;98537.19;5112023;28;20199;-58
2023/09/29 02:02:15;;;;;;;7.20;3.03;;;;;;;18.28;100.00;98504.31;5111998;28;20171;-58
2023/09/29 02:04:41;;;;;;;6.53;3.75;;;;;;;18.48;100.00;98545.13;5068658;28;20192;-58
2023/09/29 02:07:07;;;;;;;6.95;3.28;;;;;;;18.13;100.00;98511.88;5068720;28;20188;-58
2023/09/29 02:09:33;;;;;;;4.47;3.58;;;;;;;18.14;100.00;98508.25;5068644;28;20257;-58
2023/09/29 02:11:58;;;;;;;8.27;3.42;;;;;;;18.33;100.00;98546.63;5068636;28;20214;-58
2023/09/29 02:14:23;;;;;;;4.82;3.03;;;;;;;18.44;100.00;98546.41;5068508;28;20260;-58
2023/09/29 02:16:49;;;;;;;6.20;3.10;;;;;;;18.37;100.00;98548.78;5068702;28;20714;-58
2023/09/29 02:19:16;;;;;;;5.10;3.15;;;;;;;18.30;100.00;98539.06;5068487;28;20204;-57
2023/09/29 02:21:43;;;;;;;5.80;2.85;;;;;;;18.31;100.00;98538.91;5068493;28;20743;-57
2023/09/29 02:24:09;;;;;;;7.60;3.47;;;;;;;18.17;100.00;98534.16;5068487;28;20184;-58
2023/09/29 02:26:34;;;;;;;6.90;2.88;;;;;;;18.23;100.00;98532.75;5068587;28;20187;-58
2023/09/29 02:29:03;;;;;;;7.10;2.90;;;;;;;18.07;100.00;98507.22;5068490;28;20177;-58
2023/09/29 02:31:28;;;;;;;6.22;3.30;;;;;;;18.03;100.00;98505.06;5068398;28;20666;-58
2023/09/29 02:33:53;;;;;;;10.77;2.95;;;;;;;18.21;100.00;98537.31;5067783;28;20176;-59
2023/09/29 02:36:19;;;;;;;6.68;3.03;;;;;;;18.03;100.00;98508.50;5101249;28;20189;-57
2023/09/29 02:38:45;;;;;;;6.20;3.38;;;;;;;18.04;100.00;98511.94;5111325;28;20632;-57
2023/09/29 02:41:10;;;;;;;4.70;3.13;;;;;;;17.98;100.00;98502.06;5111247;28;20228;-57
2023/09/29 02:43:37;;;;;;;10.35;3.53;;;;;;;18.14;100.00;98538.88;5111225;28;20175;-57
2023/09/29 02:46:03;;;;;;;5.53;3.28;;;;;;;17.98;100.00;98507.28;5067987;28;20231;-57
2023/09/29 02:48:28;;;;;;;5.65;2.90;;;;;;;17.93;100.00;98509.53;5068116;28;20188;-58
2023/09/29 02:50:53;;;;;;;6.60;3.28;;;;;;;17.91;100.00;98498.41;5068184;28;20315;-57
2023/09/29 02:53:19;;;;;;;6.43;3.08;;;;;;;18.14;100.00;98531.03;5068171;28;20191;-58
2023/09/29 02:55:45;;;;;;;3.78;3.10;;;;;;;18.17;100.00;98536.78;5068549;28;20191;-58
2023/09/29 02:58:11;;;;;;;8.40;3.33;;;;;;;18.01;100.00;98509.63;5067965;28;20181;-56
2023/09/29 03:00:37;;;;;;;5.68;2.90;;;;;;;18.26;100.00;98535.91;5067926;28;20238;-57
2023/09/29 03:03:04;;;;;;;7.22;3.20;;;;;;;18.24;100.00;98544.88;5068015;28;20674;-57
2023/09/29 03:05:30;;;;;;;5.45;3.00;;;;;;;18.12;100.00;98510.22;5071678;28;20681;-57
2023/09/29 03:07:55;;;;;;;8.73;3.45;;;;;;;18.32;100.00;98535.34;5072071;28;20221;-57
2023/09/29 03:10:21;;;;;;;4.15;3.05;;;;;;;18.27;100.00;98539.34;5071895;28;20625;-57
2023/09/29 03:12:48;;;;;;;7.63;3.30;;;;;;;18.32;100.00;98548.44;5071831;28;20275;-57
2023/09/29 03:15:15;;;;;;;7.30;2.97;;;;;;;18.28;100.00;98544.44;5071990;28;20348;-57
2023/09/29 03:17:41;;;;;;;6.40;2.65;;;;;;;18.27;100.00;98539.34;5105015;28;20324;-57
2023/09/29 03:20:11;;;;;;;9.68;3.63;;;;;;;18.22;100.00;98529.31;5114924;28;20194;-57
2023/09/29 03:22:39;;;;;;;4.88;2.88;;;;;;;18.17;100.00;98528.94;5051688;28;20189;-57
2023/09/29 03:25:05;;;;;;;8.95;3.45;;;;;;;18.14;100.00;98517.94;5051629;28;20189;-57
2023/09/29 03:27:31;;;;;;;6.90;3.00;;;;;;;18.30;100.00;98536.44;5051845;28;20683;-57
2023/09/29 03:29:58;;;;;;;9.98;3.10;;;;;;;18.24;100.00;98539.66;5051792;28;20229;-58
2023/09/29 03:32:25;;;;;;;7.63;3.03;;;;;;;18.11;100.00;98512.97;5051677;28;20591;-57
2023/09/29 03:34:50;;;;;;;8.10;3.30;;;;;;;18.36;100.00;98548.97;5051694;28;20683;-58
2023/09/29 03:37:15;;;;;;;5.72;2.95;;;;;;;18.20;100.00;98517.34;5051778;28;20182;-58
2023/09/29 03:39:41;;;;;;;5.75;2.50;;;;;;;18.46;100.00;98533.97;5051596;28;20295;-58
2023/09/29 03:42:06;;;;;;;6.13;2.63;;;;;;;18.40;100.00;98513.59;5051632;28;20181;-57
2023/09/29 03:44:33;;;;;;;8.70;3.65;;;;;;;18.43;100.00;98539.53;5051504;28;20763;-57
2023/09/29 03:46:58;;;;;;;6.55;3.05;;;;;;;18.13;100.00;98496.16;5051396;28;20298;-58
2023/09/29 03:49:24;;;;;;;5.82;3.00;;;;;;;18.27;100.00;98531.47;5051447;28;20212;-57
2023/09/29 03:51:51;;;;;;;6.40;3.00;;;;;;;18.17;100.00;98522.84;5051200;28;20325;-56
2023/09/29 03:54:18;;;;;;;5.28;3.20;;;;;;;18.11;100.00;98515.59;5051276;28;20193;-58
2023/09/29 03:56:44;;;;;;;5.90;2.65;;;;;;;17.99;100.00;98499.31;5051286;28;20504;-58
2023/09/29 03:59:10;;;;;;;7.05;3.00;;;;;;;18.16;100.00;98515.97;5062084;28;20274;-57
2023/09/29 04:01:36;;;;;;;5.20;2.83;;;;;;;18.13;100.00;98495.34;5114636;28;20217;-58
2023/09/29 04:04:02;;;;;;;7.18;3.03;;;;;;;18.40;100.00;98534.56;5114258;28;20195;-58
2023/09/29 04:06:28;;;;;;;5.68;3.05;;;;;;;18.41;100.00;98531.00;5114193;28;20245;-57
2023/09/29 04:08:54;;;;;;;6.78;3.08;;;;;;;18.44;100.00;98530.69;5114066;28;20202;-57
2023/09/29 04:11:19;;;;;;;6.03;2.72;;;;;;;18.43;100.00;98529.84;5113928;28;20209;-58
2023/09/29 04:13:45;;;;;;;10.00;3.10;;;;;;;18.40;100.00;98529.31;5070634;28;20246;-58
2023/09/29 04:16:10;;;;;;;4.40;2.65;;;;;;;18.23;100.00;98502.13;5070496;28;20662;-58
2023/09/29 04:18:36;;;;;;;3.55;2.67;;;;;;;18.35;100.00;98521.94;5070854;28;20216;-57
2023/09/29 04:21:02;;;;;;;7.82;2.92;;;;;;;18.12;100.00;98488.47;5070832;28;20180;-58
2023/09/29 04:23:27;;;;;;;5.00;2.63;;;;;;;18.32;100.00;98526.66;5070837;28;20306;-58
2023/09/29 04:25:53;;;;;;;5.55;2.47;;;;;;;18.21;100.00;98508.50;5070748;28;20191;-58
2023/09/29 04:28:18;;;;;;;5.03;2.50;;;;;;;18.16;100.00;98508.13;5070776;28;20181;-58
2023/09/29 04:30:44;;;;;;;4.30;3.08;;;;;;;18.17;100.00;98531.56;5070747;28;20200;-58
2023/09/29 04:33:10;;;;;;;7.18;2.90;;;;;;;17.92;100.00;98494.81;5070645;28;20246;-58
2023/09/29 04:35:35;;;;;;;5.85;2.70;;;;;;;17.97;100.00;98503.03;5070582;28;20185;-57
2023/09/29 04:38:01;;;;;;;3.88;2.72;;;;;;;18.03;100.00;98505.06;5070522;28;20177;-57
2023/09/29 04:40:28;;;;;;;5.18;2.60;;;;;;;17.91;100.00;98494.00;5070364;28;20198;-57
2023/09/29 04:42:54;;;;;;;3.42;2.80;;;;;;;18.08;100.00;98521.16;5050264;28;20188;-57
2023/09/29 04:45:19;;;;;;;9.23;2.72;;;;;;;17.82;100.00;98483.56;5039956;28;20210;-58
2023/09/29 04:47:45;;;;;;;7.53;3.00;;;;;;;17.89;100.00;98492.50;4990851;28;20285;-58
2023/09/29 04:50:11;;;;;;;5.53;2.90;;;;;;;18.14;100.00;98534.44;4990973;28;20713;-58
2023/09/29 04:52:36;;;;;;;5.88;2.63;;;;;;;18.07;100.00;98504.59;4990896;28;20183;-57
2023/09/29 04:55:02;;;;;;;7.30;2.58;;;;;;;18.18;100.00;98529.78;4990887;28;20249;-58
2023/09/29 04:57:28;;;;;;;4.28;3.00;;;;;;;18.19;100.00;98520.94;4990934;28;20230;-58
2023/09/29 04:59:54;;;;;;;9.23;2.80;;;;;;;18.21;100.00;98514.56;4990913;28;20198;-57
2023/09/29 05:02:19;;;;;;;7.90;2.60;;;;;;;18.29;100.00;98517.25;4990722;28;20190;-57
2023/09/29 05:04:45;;;;;;;5.93;2.67;;;;;;;18.24;100.00;98503.78;4990747;28;20217;-57
2023/09/29 05:07:12;;;;;;;4.43;2.58;;;;;;;18.41;100.00;98523.13;4990565;28;20187;-57
2023/09/29 05:09:37;;;;;;;5.18;2.70;;;;;;;18.50;100.00;98524.84;4990622;28;20199;-57
2023/09/29 05:12:04;;;;;;;5.65;2.70;;;;;;;18.61;100.00;98527.22;4990736;28;20195;-57
2023/09/29 05:14:30;;;;;;;4.95;2.50;;;;;;;18.53;100.00;98493.91;4990649;28;20203;-58
2023/09/29 05:16:55;;;;;;;5.05;2.85;;;;;;;18.69;100.00;98504.50;5035052;28;20251;-56
2023/09/29 05:19:20;;;;;;;5.18;2.30;;;;;;;18.82;100.00;98514.59;5096987;28;20240;-57
2023/09/29 05:21:46;;;;;;;6.07;2.72;;;;;;;18.94;100.00;98523.88;5112503;28;20178;-57
2023/09/29 05:24:11;;;;;;;9.68;2.58;;;;;;;19.06;100.00;98533.13;5069446;28;20224;-57
2023/09/29 05:26:37;;;;;;;6.22;3.25;;;;;;;19.21;100.00;98542.06;5068942;28;20234;-57
2023/09/29 05:29:02;;;;;;;5.97;2.25;;;;;;;19.22;100.00;98543.72;5069577;28;20197;-57
2023/09/29 05:31:27;;;;;;;5.47;2.60;;;;;;;19.17;100.00;98519.75;5069476;28;20204;-58
2023/09/29 05:33:54;;;;;;;6.03;2.53;;;;;;;19.33;83.09;98514.59;5029461;28;20738;-57
2023/09/29 05:36:21;;;;;;;3.78;2.75;;;;;;;19.56;82.16;98541.91;5029356;28;20632;-57
2023/09/29 05:38:47;;;;;;;5.93;2.40;;;;;;;19.61;80.74;98534.41;5029392;28;20194;-57
2023/09/29 05:41:13;;;;;;;5.70;2.60;;;;;;;19.63;81.68;98543.75;5029482;28;20217;-57
2023/09/29 05:43:38;;;;;;;8.98;2.97;;;;;;;19.46;80.33;98504.50;5029412;28;20718;-57
2023/09/29 05:46:04;;;;;;;7.00;2.42;;;;;;;19.58;78.58;98526.84;5029490;28;20692;-57
2023/09/29 05:48:29;;;;;;;7.60;3.65;;;;;;;19.56;78.71;98531.41;5029659;28;20204;-57
2023/09/29 05:50:55;;;;;;;6.80;2.70;;;;;;;19.55;76.80;98545.53;5029243;28;20296;-57
2023/09/29 05:53:21;;;;;;;7.38;2.53;;;;;;;19.73;77.25;98567.25;5029134;28;20585;-57
2023/09/29 05:55:46;;;;;;;12.15;3.33;;;;;;;19.67;76.76;98554.75;5058938;28;20181;-57
2023/09/29 05:58:11;;;;;;;12.43;3.05;;;;;;;19.67;76.36;98537.22;5069020;28;20666;-57
2023/09/29 06:00:37;;;;;;;4.63;2.30;;;;;;;19.79;75.71;98549.09;5069023;28;20185;-57
2023/09/29 06:03:03;;;;;;;9.00;2.80;;;;;;;19.64;75.69;98527.03;5068775;28;20296;-57
2023/09/29 06:05:29;;;;;;;8.05;2.70;;;;;;;19.87;75.99;98566.69;5101018;28;20188;-57
2023/09/29 06:07:55;;;;;;;11.05;2.65;;;;;;;19.78;75.45;98520.34;5111674;28;20175;-57
2023/09/29 06:10:21;;;;;;;5.63;2.67;;;;;;;19.91;74.70;98541.72;5111807;28;20302;-57
2023/09/29 06:12:46;;;;;;;4.65;2.92;;;;;;;20.01;74.22;98553.75;5111692;28;20269;-57
2023/09/29 06:15:11;;;;;;;4.88;2.47;;;;;;;20.09;73.67;98550.31;5111795;28;20195;-57
2023/09/29 06:17:37;;;;;;;5.10;2.63;;;;;;;20.23;73.56;98568.13;5111793;28;20175;-57
2023/09/29 06:20:04;;;;;;;5.38;2.75;;;;;;;20.07;72.62;98547.03;5068590;28;20207;-58
2023/09/29 06:22:29;;;;;;;2.70;2.35;;;;;;;20.11;73.81;98553.63;5068723;28;20188;-57
2023/09/29 06:24:55;;;;;;;4.05;2.65;;;;;;;20.08;73.62;98556.56;5068911;28;20618;-57
2023/09/29 06:27:20;;;;;;;6.28;2.25;;;;;;;20.03;73.50;98541.25;5068636;28;20310;-58
2023/09/29 06:29:49;;;;;;;4.32;2.70;;;;;;;20.26;73.86;98562.50;5068571;28;20184;-57
2023/09/29 06:32:15;;;;;;;4.43;2.65;;;;;;;20.17;73.05;98542.47;5068543;28;20192;-57
2023/09/29 06:34:41;;;;;;;5.22;2.63;;;;;;;20.25;72.93;98532.81;5068535;28;20188;-57
2023/09/29 06:37:08;;;;;;;10.02;3.30;;;;;;;20.49;72.93;98574.88;5068455;28;20188;-57
2023/09/29 06:39:34;;;;;;;8.02;2.85;;;;;;;20.38;73.23;98553.34;5068210;28;20193;-57
2023/09/29 06:41:59;;;;;;;7.25;2.85;;;;;;;20.43;73.35;98564.19;5068444;28;20682;-57
2023/09/29 06:44:25;;;;;;;10.88;2.75;;;;;;;20.59;72.99;98572.09;5068410;28;20761;-57
2023/09/29 06:46:50;;;;;;;6.88;2.92;;;;;;;20.45;73.96;98546.47;5068326;28;20990;-57
2023/09/29 06:49:15;;;;;;;4.72;2.35;;;;;;;20.54;73.07;98551.56;5028250;28;20216;-57
2023/09/29 06:51:41;;;;;;;7.30;2.75;;;;;;;20.51;71.55;98557.13;5059169;28;20216;-58
2023/09/29 06:54:07;;;;;;;9.00;2.92;;;;;;;20.64;72.18;98577.69;5068587;28;20184;-58
2023/09/29 06:56:32;;;;;;;8.13;2.58;;;;;;;20.47;71.53;98539.22;5068229;28;20188;-57
2023/09/29 06:58:57;;;;;;;5.88;3.15;;;;;;;20.51;71.86;98540.56;5068186;28;20210;-57
2023/09/29 07:01:24;;;;;;;5.10;2.70;;;;;;;20.64;71.79;98557.47;5068315;28;20734;-57
2023/09/29 07:03:50;;;;;;;6.10;3.38;;;;;;;20.69;71.21;98552.53;5068121;28;20194;-57
2023/09/29 07:06:15;;;;;;;9.68;3.30;;;;;;;20.80;74.79;98564.56;5068234;28;20181;-57
2023/09/29 07:08:41;;;;;;;11.48;3.22;;;;;;;20.75;73.40;98553.69;5068102;28;20257;-57
2023/09/29 07:11:06;;;;;;;10.25;3.15;;;;;;;20.87;74.26;98568.16;5068081;28;20208;-57
2023/09/29 07:13:32;;;;;;;10.30;5.03;;;;;;;20.80;74.61;98546.13;5047727;28;20314;-58
2023/09/29 07:15:58;;;;;;;7.55;3.35;;;;;;;20.86;77.00;98571.78;5047989;28;20196;-58
2023/09/29 07:18:23;;;;;;;12.50;4.22;;;;;;;20.80;75.20;98546.13;5048104;28;20244;-58
2023/09/29 07:20:53;;;;;;;8.63;3.40;;;;;;;20.76;77.49;98534.28;5062710;28;20188;-58
2023/09/29 07:23:24;;;;;;;11.00;3.53;;;;;;;21.01;78.40;98563.06;5067974;28;20588;-58
2023/09/29 07:25:53;;;;;;;5.63;3.45;;;;;;;21.03;78.51;98565.56;5068095;28;20543;-58
2023/09/29 07:28:21;;;;;;;3.95;2.95;;;;;;;20.88;79.15;98551.38;5068023;28;20181;-58
2023/09/29 07:30:47;;;;;;;5.18;2.72;;;;;;;21.10;78.77;98566.53;5067886;28;20212;-57
2023/09/29 07:33:12;;;;;;;4.40;2.50;;;;;;;21.07;78.18;98548.41;5067917;28;20187;-58
2023/09/29 07:35:38;;;;;;;8.43;2.85;;;;;;;21.08;78.43;98550.88;5067901;28;20188;-57
2023/09/29 07:38:05;;;;;;;3.65;2.63;;;;;;;21.10;75.38;98559.44;5067840;28;20204;-58
2023/09/29 07:40:32;;;;;;;5.97;2.70;;;;;;;21.23;76.04;98578.19;5067875;28;20176;-58
2023/09/29 07:42:58;;;;;;;5.20;2.83;;;;;;;21.11;76.84;98545.31;5067890;28;20180;-58
2023/09/29 07:45:23;;;;;;;6.63;2.72;;;;;;;21.25;75.51;98554.31;5104555;28;20187;-57
2023/09/29 07:47:49;;;;;;;7.60;2.47;;;;;;;21.35;75.94;98558.41;5110554;28;20171;-58
2023/09/29 07:50:14;;;;;;;7.93;3.45;;;;;;;21.30;75.48;98536.19;5112152;28;20246;-57
2023/09/29 07:52:40;;;;;;;6.05;2.78;;;;;;;21.58;74.73;98569.03;5114628;28;20183;-56
2023/09/29 07:55:06;;;;;;;6.35;3.15;;;;;;;21.39;75.32;98543.09;5114480;28;20201;-57
2023/09/29 07:57:32;;;;;;;10.18;3.42;;;;;;;21.64;75.60;98574.44;5114505;28;20171;-57
2023/09/29 07:59:58;;;;;;;5.70;3.00;;;;;;;21.44;74.22;98546.03;5114469;28;20186;-56
2023/09/29 08:02:24;;;;;;;8.70;2.95;;;;;;;21.66;74.75;98579.53;5114359;28;20167;-57
2023/09/29 08:04:50;;;;;;;7.05;2.15;;;;;;;21.72;73.54;98565.69;5114329;28;20179;-57
2023/09/29 08:07:15;;;;;;;3.58;2.85;;;;;;;21.61;73.33;98543.16;5114265;28;20177;-57
2023/09/29 08:09:41;;;;;;;5.30;3.08;;;;;;;21.81;67.69;98564.69;5114439;28;20179;-56
2023/09/29 08:12:06;;;;;;;6.47;2.88;;;;;;;21.88;69.51;98558.56;5114048;28;20168;-56
2023/09/29 08:14:31;;;;;;;8.77;3.15;;;;;;;21.89;69.48;98548.84;5114410;28;20187;-57
2023/09/29 08:16:57;;;;;;;6.32;3.42;;;;;;;22.05;70.35;98554.03;5114127;28;20177;-57
2023/09/29 08:19:23;;;;;;;6.28;3.30;;;;;;;22.12;69.95;98547.88;5114137;28;20179;-58
2023/09/29 08:21:49;;;;;;;8.35;3.13;;;;;;;22.34;70.52;98572.63;5114029;28;20213;-58
2023/09/29 08:24:15;;;;;;;6.78;2.92;;;;;;;22.30;69.81;98551.06;5114076;28;20215;-58
2023/09/29 08:26:41;;;;;;;6.45;3.10;;;;;;;22.38;69.89;98551.00;5113977;28;20235;-58
2023/09/29 08:29:14;;;;;;;5.75;2.83;;;;;;;22.51;68.72;98547.81;5113990;28;20183;-58
2023/09/29 08:31:39;;;;;;;4.05;2.45;;;;;;;22.65;66.85;98550.50;5113835;28;20248;-58
2023/09/29 08:34:05;;;;;;;6.60;2.50;;;;;;;22.94;67.07;98565.59;5113436;28;20571;-57
2023/09/29 08:36:30;;;;;;;5.43;3.22;;;;;;;23.06;67.47;98564.16;5039612;28;20284;-57
2023/09/29 08:38:55;;;;;;;5.85;2.83;;;;;;;23.02;67.18;98544.41;5039118;28;20198;-57
2023/09/29 08:41:26;;;;;;;5.05;2.70;;;;;;;23.37;64.76;98562.25;5030439;28;20182;-57
2023/09/29 08:43:51;;;;;;;4.32;2.40;;;;;;;23.18;60.07;98531.91;5030401;28;20360;-57
2023/09/29 08:46:18;;;;;;;7.55;2.85;;;;;;;23.44;58.84;98568.44;5030268;28;20187;-57
2023/09/29 08:48:46;;;;;;;5.47;2.45;;;;;;;23.44;58.38;98531.44;5030137;28;20181;-57
2023/09/29 08:51:13;;;;;;;5.82;2.67;;;;;;;23.78;59.70;98559.75;5030195;28;20271;-58
2023/09/29 08:53:41;;;;;;;5.78;2.78;;;;;;;23.71;57.53;98528.97;5030314;28;20200;-57
2023/09/29 08:56:11;;;;;;;10.23;3.40;;;;;;;24.01;57.03;98564.94;5030257;28;20186;-57
2023/09/29 08:58:37;;;;;;;8.38;2.33;;;;;;;23.99;55.33;98537.88;5030380;28;20312;-57
2023/09/29 09:01:03;;;;;;;8.52;2.35;;;;;;;24.16;46.73;98549.88;5029392;28;20286;-57
2023/09/29 09:03:28;;;;;;;7.90;2.00;;;;;;;24.32;40.84;98561.03;5029838;28;20189;-56
2023/09/29 09:05:55;;;;;;;8.55;2.85;;;;;;;24.45;41.52;98563.81;5030119;28;20200;-56
2023/09/29 09:08:24;;;;;;;5.72;2.15;;;;;;;24.54;37.14;98559.19;5083220;28;20240;-57
2023/09/29 09:10:58;;;;;;;8.85;2.78;;;;;;;24.51;36.92;98554.31;5091635;28;20228;-57
2023/09/29 09:13:26;;;;;;;5.97;2.63;;;;;;;24.58;36.76;98549.91;5090621;28;20204;-57
2023/09/29 09:15:59;;;;;;;7.13;2.83;;;;;;;24.68;35.94;98559.16;5092085;28;20175;-56
2023/09/29 09:18:28;;;;;;;5.45;2.90;;;;;;;24.68;36.90;98550.44;5092562;28;20176;-57
2023/09/29 09:20:54;;;;;;;5.70;2.80;;;;;;;24.80;35.76;98565.63;5092520;28;20200;-57
2023/09/29 09:23:20;;;;;;;10.15;3.08;;;;;;;24.85;35.50;98587.00;5092314;28;20709;-57
2023/09/29 09:25:46;;;;;;;10.63;3.10;;;;;;;24.90;34.80;98587.28;5092565;28;20175;-57
2023/09/29 09:28:18;;;;;;;5.90;3.10;;;;;;;24.78;35.86;98556.22;5092324;28;20286;-56
2023/09/29 09:30:46;;;;;;;7.07;3.17;;;;;;;24.92;34.75;98574.69;5092452;28;20572;-57
2023/09/29 09:33:21;;;;;;;11.55;3.60;;;;;;;25.00;35.65;98585.13;5091836;28;20501;-56
2023/09/29 09:35:47;;;;;;;10.77;3.53;;;;;;;24.86;35.16;98574.63;5092089;28;20171;-57
2023/09/29 09:38:13;;;;;;;5.97;3.05;;;;;;;24.82;36.26;98563.59;5091906;28;20229;-58
2023/09/29 09:40:39;;;;;;;8.27;3.33;;;;;;;24.97;36.34;98577.53;5091839;28;20172;-57
2023/09/29 09:43:09;;;;;;;12.63;3.83;;;;;;;25.04;36.96;98590.84;5092075;28;20175;-57
2023/09/29 09:45:40;;;;;;;7.60;3.50;;;;;;;24.87;35.20;98560.34;5092362;28;20656;-57
2023/09/29 09:48:10;;;;;;;6.15;3.00;;;;;;;25.01;34.83;98573.50;5092015;28;20312;-58
2023/09/29 09:50:40;;;;;;;9.25;3.17;;;;;;;25.06;34.28;98557.03;5091752;28;20568;-57
2023/09/29 09:53:09;;;;;;;13.35;3.55;;;;;;;25.14;33.81;98562.22;5091912;28;20329;-56
2023/09/29 09:55:50;;;;;;;13.05;3.38;;;;;;;25.27;34.69;98594.94;5091866;28;20332;-57
2023/09/29 09:58:17;;;;;;;11.00;3.70;;;;;;;25.22;35.39;98576.13;5091847;28;20272;-57
2023/09/29 10:00:45;;;;;;;6.75;3.08;;;;;;;25.10;35.51;98556.47;5091749;28;20262;-57
2023/09/29 10:03:14;;;;;;;8.32;3.30;;;;;;;25.23;35.72;98572.47;5091732;28;20176;-57
2023/09/29 10:05:42;;;;;;;9.25;2.83;;;;;;;25.35;36.06;98581.53;5095461;28;20624;-57
2023/09/29 10:08:10;;;;;;;7.15;3.40;;;;;;;25.44;34.94;98584.88;5111613;28;20183;-57
2023/09/29 10:10:41;;;;;;;16.17;3.60;;;;;;;25.31;35.47;98548.50;5111410;28;20238;-57
2023/09/29 10:13:11;;;;;;;13.00;3.60;;;;;;;25.51;35.32;98581.25;5111192;28;20568;-57
2023/09/29 10:15:40;;;;;;;13.43;3.55;;;;;;;25.47;35.03;98553.50;5111287;28;20557;-57
2023/09/29 10:18:19;;;;;;;11.75;3.28;;;;;;;25.55;35.37;98540.06;5110833;28;20524;-57
2023/09/29 10:21:00;;;;;;;9.95;3.65;;;;;;;25.93;35.38;98575.78;5111854;28;20653;-57
2023/09/29 10:23:26;;;;;;;8.35;3.17;;;;;;;26.03;35.86;98555.03;5110243;28;20653;-57
2023/09/29 10:25:59;;;;;;;9.13;2.95;;;;;;;26.05;34.88;98534.41;5111500;28;20218;-57
2023/09/29 10:28:35;;;;;;;14.35;3.95;;;;;;;26.35;33.43;98561.44;5111940;28;20261;-57
2023/09/29 10:31:13;;;;;;;16.88;4.25;;;;;;;26.36;33.55;98539.19;5111289;28;20234;-58
2023/09/29 10:33:51;;;;;;;11.65;4.05;;;;;;;26.81;32.47;98559.69;5111829;28;20198;-58
2023/09/29 10:36:18;;;;;;;16.02;3.70;;;;;;;26.93;33.23;98556.22;5111621;28;20175;-58
2023/09/29 10:38:44;;;;;;;13.65;3.92;;;;;;;27.14;33.36;98563.16;5111517;28;20180;-58
2023/09/29 10:41:09;;;;;;;8.88;3.80;;;;;;;26.98;32.31;98532.50;5111460;28;20228;-58
2023/09/29 10:43:36;;;;;;;6.82;3.90;;;;;;;27.17;31.86;98566.25;5111084;28;20231;-58
2023/09/29 10:46:10;;;;;;;9.85;3.88;;;;;;;27.03;32.18;98532.72;5111446;28;20599;-58
2023/09/29 10:48:47;;;;;;;7.05;3.10;;;;;;;27.15;32.66;98539.03;5111409;28;20182;-58
2023/09/29 10:51:30;;;;;;;7.97;3.50;;;;;;;27.30;31.76;98529.00;5111186;28;20209;-58
2023/09/29 10:54:02;;;;;;;14.00;3.88;;;;;;;27.35;32.07;98515.91;5111646;28;20175;-58
2023/09/29 10:56:28;;;;;;;5.93;3.40;;;;;;;27.67;31.49;98546.94;5111101;28;20583;-57
2023/09/29 10:58:55;;;;;;;10.05;3.60;;;;;;;27.82;30.79;98544.84;5111038;28;20171;-57
2023/09/29 11:01:30;;;;;;;6.95;3.70;;;;;;;27.81;30.55;98537.91;5111211;28;20175;-57
2023/09/29 11:03:56;;;;;;;9.90;3.60;;;;;;;27.90;30.45;98547.28;5111223;28;20178;-57
2023/09/29 11:06:22;;;;;;;9.07;3.90;;;;;;;27.81;30.31;98527.25;5111229;28;20170;-57
2023/09/29 11:08:57;;;;;;;7.90;3.60;;;;;;;27.80;29.63;98508.84;5067998;28;20334;-57
2023/09/29 11:11:36;;;;;;;9.82;3.42;;;;;;;27.99;30.66;98543.34;5068023;28;20253;-58
2023/09/29 11:14:04;;;;;;;10.20;3.53;;;;;;;27.90;30.15;98539.31;5027817;28;20205;-57
2023/09/29 11:16:31;;;;;;;8.20;3.75;;;;;;;27.90;30.68;98539.31;5028198;28;20193;-57
2023/09/29 11:19:14;;;;;;;6.32;3.88;;;;;;;27.86;28.86;98513.34;5028391;28;20201;-58
2023/09/29 11:21:40;;;;;;;9.73;3.60;;;;;;;27.95;29.03;98515.56;5028133;28;20190;-57
2023/09/29 11:24:13;;;;;;;12.23;3.60;;;;;;;28.02;29.95;98540.28;5028139;28;20218;-58
2023/09/29 11:26:40;;;;;;;10.68;3.65;;;;;;;27.89;30.48;98528.88;5031852;28;20707;-58
2023/09/29 11:29:06;;;;;;;11.45;3.35;;;;;;;27.87;31.46;98507.78;5031950;28;20193;-58